Time;durP1;ratioP1;P1;durP2;ratioP2;P2;SDS_P1;SDS_P2;PMS_P1;PMS_P2;Temp;Humidity;BMP_temperature;BMP_pressure;BME280_temperature;BME280_humidity;BME280_pressure;Samples;Min_cycle;Max_cycle;Signal;HPM_P1;HPM_P2
2021/06/07 00:01:43;;;;;;;4.15;1.35;;;;;;;;;;5066379;28;20109;-81
2021/06/07 00:04:11;;;;;;;1.92;1.50;;;;;;;;;;5069473;28;20032;-81
2021/06/07 00:06:38;;;;;;;1.90;1.60;;;;;;;;;;5068664;28;20325;-81
2021/06/07 00:09:06;;;;;;;2.15;1.63;;;;;;;;;;5073771;28;20052;-81
2021/06/07 00:11:34;;;;;;;1.63;1.63;;;;;;;;;;5070350;28;20110;-81
2021/06/07 00:14:04;;;;;;;1.60;1.60;;;;;;;;;;5092344;28;20045;-81
2021/06/07 00:16:31;;;;;;;1.95;1.85;;;;;;;;;;5061913;28;20036;-81
2021/06/07 00:18:58;;;;;;;2.53;1.98;;;;;;;;;;5071282;28;20048;-81
2021/06/07 00:21:27;;;;;;;5.78;1.60;;;;;;;;;;5072682;28;20044;-81
2021/06/07 00:23:54;;;;;;;3.35;2.60;;;;;;;;;;5069334;28;20036;-81
2021/06/07 00:26:21;;;;;;;3.13;2.15;;;;;;;;;;5071320;28;20086;-81
2021/06/07 00:28:48;;;;;;;1.75;1.65;;;;;;;;;;5060719;28;20041;-81
2021/06/07 00:31:15;;;;;;;1.70;1.60;;;;;;;;;;5082861;28;20491;-81
2021/06/07 00:33:42;;;;;;;2.28;1.88;;;;;;;;;;5055699;28;20482;-81
2021/06/07 00:36:09;;;;;;;2.35;1.30;;;;;;;;;;5073445;28;20040;-81
2021/06/07 00:38:36;;;;;;;1.73;1.30;;;;;;;;;;5102628;28;20052;-81
2021/06/07 00:41:04;;;;;;;1.25;1.25;;;;;;;;;;5070575;28;20053;-81
2021/06/07 00:43:31;;;;;;;2.65;1.45;;;;;;;;;;5069466;28;20037;-81
2021/06/07 00:45:58;;;;;;;2.00;1.80;;;;;;;;;;5085323;28;20090;-81
2021/06/07 00:48:26;;;;;;;1.63;1.63;;;;;;;;;;5070663;28;20055;-81
2021/06/07 00:50:55;;;;;;;3.95;1.60;;;;;;;;;;5053222;28;20052;-81
2021/06/07 00:53:22;;;;;;;1.55;1.45;;;;;;;;;;5070823;28;20094;-81
2021/06/07 00:55:55;;;;;;;6.57;2.05;;;;;;;;;;5065790;28;20048;-81
2021/06/07 00:58:27;;;;;;;1.67;1.58;;;;;;;;;;5071064;28;20513;-81
2021/06/07 01:00:55;;;;;;;1.97;1.63;;;;;;;;;;5069813;28;20037;-81
2021/06/07 01:03:22;;;;;;;4.75;1.35;;;;;;;;;;5071135;28;20478;-81
2021/06/07 01:05:50;;;;;;;3.30;1.50;;;;;;;;;;5069470;28;20036;-81
2021/06/07 01:08:18;;;;;;;1.77;1.50;;;;;;;;;;5070053;28;20040;-81
2021/06/07 01:10:46;;;;;;;1.80;1.35;;;;;;;;;;5070148;28;20100;-81
2021/06/07 01:13:14;;;;;;;3.65;1.50;;;;;;;;;;5070068;28;20086;-81
2021/06/07 01:15:44;;;;;;;1.70;1.60;;;;;;;;;;5069240;28;20098;-81
2021/06/07 01:18:12;;;;;;;1.38;1.38;;;;;;;;;;5069593;28;20506;-81
2021/06/07 01:20:40;;;;;;;2.40;1.40;;;;;;;;;;5104244;28;20036;-81
2021/06/07 01:23:07;;;;;;;2.00;1.85;;;;;;;;;;5074786;28;20048;-81
2021/06/07 01:25:35;;;;;;;1.85;1.60;;;;;;;;;;5059515;28;20041;-81
2021/06/07 01:28:02;;;;;;;2.25;1.75;;;;;;;;;;5073533;28;20043;-81
2021/06/07 01:30:30;;;;;;;1.60;1.60;;;;;;;;;;5104746;28;20102;-81
2021/06/07 01:32:58;;;;;;;3.42;1.40;;;;;;;;;;5074797;28;20043;-81
2021/06/07 01:35:26;;;;;;;1.85;1.52;;;;;;;;;;5105823;28;20043;-81
2021/06/07 01:37:54;;;;;;;1.50;1.40;;;;;;;;;;5073426;28;20044;-81
2021/06/07 01:40:23;;;;;;;7.82;1.70;;;;;;;;;;5075568;28;20485;-81
2021/06/07 01:42:51;;;;;;;5.85;2.53;;;;;;;;;;5074670;28;20424;-81
2021/06/07 01:45:19;;;;;;;1.70;1.70;;;;;;;;;;5076416;28;20048;-81
2021/06/07 01:47:46;;;;;;;2.15;2.05;;;;;;;;;;5073756;28;20532;-81
2021/06/07 01:50:13;;;;;;;1.38;1.30;;;;;;;;;;5069936;28;20097;-81
2021/06/07 01:52:44;;;;;;;3.42;1.55;;;;;;;;;;5074156;28;20028;-81
2021/06/07 01:55:19;;;;;;;6.82;2.80;;;;;;;;;;5072951;28;20044;-81
2021/06/07 01:57:46;;;;;;;1.55;1.55;;;;;;;;;;5075964;28;20051;-81
2021/06/07 02:00:21;;;;;;;1.65;1.55;;;;;;;;;;5072154;28;20102;-81
2021/06/07 02:02:48;;;;;;;1.65;1.65;;;;;;;;;;5067490;28;20042;-81
2021/06/07 02:05:17;;;;;;;2.00;1.80;;;;;;;;;;5068799;28;20040;-81
2021/06/07 02:07:49;;;;;;;1.65;1.45;;;;;;;;;;5073230;28;20032;-81
2021/06/07 02:10:17;;;;;;;2.60;1.45;;;;;;;;;;5107278;28;20045;-81
2021/06/07 02:12:43;;;;;;;1.90;1.30;;;;;;;;;;5071687;28;20369;-81
2021/06/07 02:15:11;;;;;;;1.25;1.25;;;;;;;;;;5074877;28;20086;-81
2021/06/07 02:17:38;;;;;;;1.33;1.33;;;;;;;;;;5073579;28;20048;-81
2021/06/07 02:20:07;;;;;;;1.25;1.23;;;;;;;;;;5071849;28;20436;-80
2021/06/07 02:22:35;;;;;;;2.33;2.08;;;;;;;;;;5059618;28;20044;-81
2021/06/07 02:25:03;;;;;;;1.30;1.30;;;;;;;;;;5073152;28;20040;-81
2021/06/07 02:27:30;;;;;;;1.65;1.55;;;;;;;;;;5073335;28;20032;-81
2021/06/07 02:29:57;;;;;;;1.48;1.42;;;;;;;;;;5074463;28;20090;-81
2021/06/07 02:32:24;;;;;;;1.55;1.40;;;;;;;;;;5071325;28;20041;-81
2021/06/07 02:34:51;;;;;;;1.67;1.67;;;;;;;;;;5066102;28;20079;-81
2021/06/07 02:37:18;;;;;;;2.97;1.83;;;;;;;;;;5073882;28;20037;-81
2021/06/07 02:39:45;;;;;;;4.43;1.50;;;;;;;;;;5073263;28;20037;-81
2021/06/07 02:42:12;;;;;;;5.85;1.88;;;;;;;;;;5068170;28;20094;-81
2021/06/07 02:44:39;;;;;;;1.75;1.75;;;;;;;;;;5053266;28;20498;-81
2021/06/07 02:47:06;;;;;;;1.60;1.30;;;;;;;;;;5060261;28;20116;-81
2021/06/07 02:49:34;;;;;;;1.35;1.35;;;;;;;;;;5073456;28;20045;-80
2021/06/07 02:52:01;;;;;;;2.35;2.25;;;;;;;;;;5071741;28;20048;-80
2021/06/07 02:54:28;;;;;;;6.18;1.60;;;;;;;;;;5058072;28;20036;-81
2021/06/07 02:56:55;;;;;;;2.55;1.77;;;;;;;;;;5072506;28;20048;-81
2021/06/07 02:59:22;;;;;;;2.22;2.13;;;;;;;;;;5072066;28;20048;-81
2021/06/07 03:01:49;;;;;;;2.33;2.13;;;;;;;;;;5062680;28;20033;-80
2021/06/07 03:04:15;;;;;;;1.73;1.63;;;;;;;;;;5066539;28;20052;-80
2021/06/07 03:06:42;;;;;;;2.17;2.08;;;;;;;;;;5074164;28;20045;-80
2021/06/07 03:09:10;;;;;;;2.53;2.33;;;;;;;;;;5066732;28;20560;-80
2021/06/07 03:11:37;;;;;;;2.55;1.83;;;;;;;;;;5077069;28;20033;-80
2021/06/07 03:14:04;;;;;;;2.22;1.60;;;;;;;;;;5043027;28;20052;-80
2021/06/07 03:16:31;;;;;;;2.25;2.05;;;;;;;;;;5067809;28;20039;-80
2021/06/07 03:18:58;;;;;;;1.30;1.30;;;;;;;;;;5059632;28;20053;-80
2021/06/07 03:21:24;;;;;;;1.98;1.88;;;;;;;;;;5072278;28;20047;-80
2021/06/07 03:23:51;;;;;;;3.08;1.95;;;;;;;;;;5077707;28;20050;-80
2021/06/07 03:26:18;;;;;;;1.73;1.63;;;;;;;;;;5073405;28;20044;-80
2021/06/07 03:28:45;;;;;;;1.95;1.85;;;;;;;;;;5072301;28;20040;-80
2021/06/07 03:31:11;;;;;;;9.10;2.83;;;;;;;;;;5071516;28;20044;-80
2021/06/07 03:33:39;;;;;;;2.25;2.15;;;;;;;;;;5071830;28;20454;-80
2021/06/07 03:36:05;;;;;;;1.45;1.40;;;;;;;;;;5064775;28;20052;-81
2021/06/07 03:38:32;;;;;;;1.95;1.85;;;;;;;;;;5073244;28;20474;-81
2021/06/07 03:41:00;;;;;;;2.28;2.17;;;;;;;;;;5068865;28;20078;-81
2021/06/07 03:43:28;;;;;;;3.33;2.22;;;;;;;;;;5072064;28;20032;-81
2021/06/07 03:45:55;;;;;;;4.47;1.92;;;;;;;;;;5070747;28;20048;-81
2021/06/07 03:48:22;;;;;;;2.58;2.40;;;;;;;;;;5071841;28;20037;-81
2021/06/07 03:50:50;;;;;;;1.85;1.73;;;;;;;;;;5064819;28;20044;-81
2021/06/07 03:53:16;;;;;;;2.20;2.08;;;;;;;;;;5083978;28;20040;-81
2021/06/07 03:55:43;;;;;;;3.03;1.85;;;;;;;;;;5091500;28;20045;-81
2021/06/07 03:58:11;;;;;;;2.92;1.73;;;;;;;;;;5074087;28;20032;-81
2021/06/07 04:00:39;;;;;;;8.18;2.03;;;;;;;;;;5071555;28;20044;-81
2021/06/07 04:03:07;;;;;;;3.67;1.85;;;;;;;;;;5074375;28;20043;-81
2021/06/07 04:05:35;;;;;;;1.98;1.88;;;;;;;;;;5068597;28;20033;-81
2021/06/07 04:08:02;;;;;;;4.03;2.10;;;;;;;;;;5092899;28;20048;-81
2021/06/07 04:10:29;;;;;;;2.08;1.85;;;;;;;;;;5071271;28;20127;-81
2021/06/07 04:12:56;;;;;;;6.15;2.42;;;;;;;;;;5072290;28;20492;-80
2021/06/07 04:15:24;;;;;;;2.65;2.55;;;;;;;;;;5074665;28;20067;-80
2021/06/07 04:17:51;;;;;;;4.40;2.10;;;;;;;;;;5068165;28;20103;-80
2021/06/07 04:20:20;;;;;;;2.05;1.92;;;;;;;;;;5066124;28;20039;-80
2021/06/07 04:22:47;;;;;;;2.17;1.98;;;;;;;;;;5073814;28;20425;-80
2021/06/07 04:25:15;;;;;;;4.90;3.03;;;;;;;;;;5069299;28;20118;-80
2021/06/07 04:27:42;;;;;;;2.60;2.38;;;;;;;;;;5070686;28;20374;-80
2021/06/07 04:30:10;;;;;;;2.30;2.20;;;;;;;;;;5069045;28;20044;-80
2021/06/07 04:32:38;;;;;;;2.72;2.17;;;;;;;;;;5071794;28;20033;-80
2021/06/07 04:35:06;;;;;;;4.32;2.28;;;;;;;;;;5068200;28;20047;-80
2021/06/07 04:37:39;;;;;;;2.97;2.78;;;;;;;;;;5086036;28;20033;-80
2021/06/07 04:40:06;;;;;;;2.53;2.42;;;;;;;;;;5092007;28;20449;-80
2021/06/07 04:42:33;;;;;;;2.35;2.35;;;;;;;;;;5071431;28;20044;-80
2021/06/07 04:45:00;;;;;;;2.53;2.40;;;;;;;;;;5068886;28;20048;-80
2021/06/07 04:47:27;;;;;;;3.35;3.10;;;;;;;;;;5066476;28;20037;-81
2021/06/07 04:49:53;;;;;;;2.65;2.38;;;;;;;;;;5049661;28;20048;-81
2021/06/07 04:52:22;;;;;;;3.17;3.08;;;;;;;;;;5079996;28;20053;-81
2021/06/07 04:54:49;;;;;;;2.83;2.72;;;;;;;;;;5070397;28;20040;-81
2021/06/07 04:57:15;;;;;;;7.47;4.53;;;;;;;;;;5071336;28;20444;-81
2021/06/07 04:59:42;;;;;;;2.83;2.63;;;;;;;;;;5053755;28;20100;-81
2021/06/07 05:02:09;;;;;;;5.60;2.60;;;;;;;;;;5084851;28;20098;-81
2021/06/07 05:04:36;;;;;;;3.22;3.00;;;;;;;;;;5070163;28;20086;-81
2021/06/07 05:07:03;;;;;;;4.20;3.05;;;;;;;;;;5070044;28;20064;-81
2021/06/07 05:09:29;;;;;;;2.80;2.60;;;;;;;;;;5099775;28;20094;-81
2021/06/07 05:11:56;;;;;;;4.05;3.53;;;;;;;;;;5068397;28;20043;-80
2021/06/07 05:14:23;;;;;;;2.47;2.28;;;;;;;;;;5065106;28;20557;-80
2021/06/07 05:16:50;;;;;;;2.78;2.60;;;;;;;;;;5070447;28;20085;-80
2021/06/07 05:19:19;;;;;;;2.88;2.33;;;;;;;;;;5070602;28;20074;-80
2021/06/07 05:21:47;;;;;;;3.53;2.55;;;;;;;;;;5064294;28;20040;-80
2021/06/07 05:24:14;;;;;;;2.22;2.08;;;;;;;;;;5068207;28;20059;-80
2021/06/07 05:26:41;;;;;;;2.80;2.60;;;;;;;;;;5069075;28;20044;-83
2021/06/07 05:29:08;;;;;;;2.58;2.47;;;;;;;;;;5067886;28;20037;-82
2021/06/07 05:31:35;;;;;;;2.35;2.25;;;;;;;;;;5069798;28;20037;-82
2021/06/07 05:34:02;;;;;;;2.60;2.47;;;;;;;;;;5063492;28;20128;-82
2021/06/07 05:36:29;;;;;;;2.60;2.40;;;;;;;;;;5058224;28;20040;-83
2021/06/07 05:38:56;;;;;;;2.45;2.30;;;;;;;;;;5061889;28;20473;-83
2021/06/07 05:41:23;;;;;;;5.38;1.85;;;;;;;;;;5068945;28;20464;-82
2021/06/07 05:43:50;;;;;;;4.55;2.05;;;;;;;;;;5085483;28;20048;-82
2021/06/07 05:46:17;;;;;;;2.35;2.25;;;;;;;;;;5067328;28;20032;-82
2021/06/07 05:48:44;;;;;;;4.18;2.20;;;;;;;;;;5082138;28;20044;-82
2021/06/07 05:51:11;;;;;;;2.08;1.85;;;;;;;;;;5092913;28;20053;-83
2021/06/07 05:53:38;;;;;;;4.18;2.33;;;;;;;;;;5051675;28;20048;-82
2021/06/07 05:56:10;;;;;;;1.42;1.42;;;;;;;;;;5065511;28;20045;-83
2021/06/07 05:58:36;;;;;;;2.08;1.90;;;;;;;;;;5068138;28;20036;-82
2021/06/07 06:01:03;;;;;;;1.52;1.52;;;;;;;;;;5067690;28;20490;-82
2021/06/07 06:03:30;;;;;;;4.10;1.70;;;;;;;;;;5070823;28;20799;-82
2021/06/07 06:05:58;;;;;;;3.33;2.10;;;;;;;;;;5074158;28;20090;-83
2021/06/07 06:08:24;;;;;;;6.75;2.22;;;;;;;;;;5072266;28;20052;-82
2021/06/07 06:10:51;;;;;;;1.30;1.30;;;;;;;;;;5068606;28;20162;-83
2021/06/07 06:13:39;;;;;;;1.90;1.85;;;;;;;;;;5090623;28;20371;-83
2021/06/07 06:16:06;;;;;;;2.55;1.95;;;;;;;;;;5074334;28;20045;-83
2021/06/07 06:18:35;;;;;;;2.28;2.00;;;;;;;;;;5067221;28;20509;-83
2021/06/07 06:21:02;;;;;;;2.05;1.90;;;;;;;;;;5072928;28;20165;-83
2021/06/07 06:23:29;;;;;;;1.35;1.35;;;;;;;;;;5064969;28;20044;-82
2021/06/07 06:25:56;;;;;;;2.00;1.65;;;;;;;;;;5055594;28;20049;-82
2021/06/07 06:28:23;;;;;;;2.00;1.73;;;;;;;;;;5058098;28;20040;-83
2021/06/07 06:30:50;;;;;;;2.33;1.92;;;;;;;;;;5071867;28;20398;-83
2021/06/07 06:33:16;;;;;;;3.08;1.70;;;;;;;;;;5074674;28;20062;-83
2021/06/07 06:35:43;;;;;;;3.22;1.95;;;;;;;;;;5059981;28;20040;-83
2021/06/07 06:38:10;;;;;;;4.82;1.70;;;;;;;;;;5067065;28;20058;-83
2021/06/07 06:40:38;;;;;;;1.67;1.58;;;;;;;;;;5071737;28;20041;-83
2021/06/07 06:43:06;;;;;;;2.33;1.73;;;;;;;;;;5072112;28;20091;-83
2021/06/07 06:45:36;;;;;;;1.30;1.30;;;;;;;;;;5072010;28;20448;-83
2021/06/07 06:48:04;;;;;;;1.55;1.55;;;;;;;;;;5055664;28;20160;-83
2021/06/07 06:50:33;;;;;;;2.05;1.63;;;;;;;;;;5052688;28;20615;-83
2021/06/07 06:53:04;;;;;;;1.42;1.42;;;;;;;;;;5071162;28;20045;-83
2021/06/07 06:55:31;;;;;;;1.95;1.30;;;;;;;;;;5072781;28;20520;-83
2021/06/07 06:57:59;;;;;;;1.83;1.50;;;;;;;;;;5071873;28;20052;-83
2021/06/07 07:00:27;;;;;;;1.23;1.23;;;;;;;;;;5055290;28;20056;-83
2021/06/07 07:02:54;;;;;;;2.05;1.30;;;;;;;;;;5066651;28;20039;-83
2021/06/07 07:05:21;;;;;;;1.52;1.42;;;;;;;;;;5059916;28;20044;-83
2021/06/07 07:07:48;;;;;;;3.80;1.45;;;;;;;;;;5104905;28;20048;-83
2021/06/07 07:10:15;;;;;;;1.33;1.30;;;;;;;;;;5070811;28;20048;-83
2021/06/07 07:12:42;;;;;;;1.88;1.20;;;;;;;;;;5071169;28;20040;-83
2021/06/07 07:15:10;;;;;;;2.58;2.00;;;;;;;;;;5054481;28;20102;-83
2021/06/07 07:17:37;;;;;;;2.17;1.25;;;;;;;;;;5069658;28;20105;-83
2021/06/07 07:20:05;;;;;;;1.38;1.27;;;;;;;;;;5069022;28;20046;-83
2021/06/07 07:22:33;;;;;;;1.75;1.27;;;;;;;;;;5051847;28;20048;-83
2021/06/07 07:25:00;;;;;;;1.20;1.10;;;;;;;;;;5062002;28;20084;-83
2021/06/07 07:27:28;;;;;;;1.20;1.10;;;;;;;;;;5062163;28;20483;-83
2021/06/07 07:29:56;;;;;;;0.90;0.90;;;;;;;;;;5062266;28;20036;-83
2021/06/07 07:32:26;;;;;;;1.30;1.00;;;;;;;;;;5071023;28;20070;-83
2021/06/07 07:34:53;;;;;;;2.30;1.00;;;;;;;;;;5070694;28;20033;-83
2021/06/07 07:37:20;;;;;;;1.80;0.90;;;;;;;;;;5071509;28;20113;-82
2021/06/07 07:39:48;;;;;;;1.55;0.93;;;;;;;;;;5053152;28;20509;-82
2021/06/07 07:42:15;;;;;;;0.93;0.93;;;;;;;;;;5068921;28;20040;-83
2021/06/07 07:44:43;;;;;;;1.38;1.00;;;;;;;;;;5068653;28;20093;-83
2021/06/07 07:47:10;;;;;;;3.60;1.10;;;;;;;;;;5066757;28;20036;-83
2021/06/07 07:49:37;;;;;;;1.48;1.00;;;;;;;;;;5053116;28;20048;-83
2021/06/07 07:52:06;;;;;;;2.65;0.90;;;;;;;;;;5070367;28;20033;-82
2021/06/07 07:54:33;;;;;;;2.35;1.10;;;;;;;;;;5068521;28;20036;-83
2021/06/07 07:57:01;;;;;;;2.00;1.02;;;;;;;;;;5062866;28;20049;-83
2021/06/07 07:59:28;;;;;;;1.13;0.88;;;;;;;;;;5069306;28;20041;-83
2021/06/07 08:01:55;;;;;;;1.90;1.27;;;;;;;;;;5086255;28;20113;-83
2021/06/07 08:04:22;;;;;;;2.35;1.00;;;;;;;;;;5070568;28;20058;-83
2021/06/07 08:06:49;;;;;;;1.65;1.52;;;;;;;;;;5067709;28;20040;-83
2021/06/07 08:09:16;;;;;;;1.25;1.02;;;;;;;;;;5057235;28;20482;-83
2021/06/07 08:11:43;;;;;;;1.67;0.90;;;;;;;;;;5070671;28;20083;-83
2021/06/07 08:14:10;;;;;;;1.23;1.20;;;;;;;;;;5068267;28;20048;-83
2021/06/07 08:16:37;;;;;;;1.65;1.55;;;;;;;;;;5070408;28;20051;-83
2021/06/07 08:19:04;;;;;;;1.23;1.15;;;;;;;;;;5067025;28;20044;-83
2021/06/07 08:21:30;;;;;;;1.25;0.90;;;;;;;;;;5049760;28;20061;-83
2021/06/07 08:23:57;;;;;;;1.17;0.90;;;;;;;;;;5063464;28;20043;-83
2021/06/07 08:26:24;;;;;;;1.17;0.90;;;;;;;;;;5056474;28;20102;-83
2021/06/07 08:28:51;;;;;;;1.05;0.90;;;;;;;;;;5070051;28;20086;-83
2021/06/07 08:31:18;;;;;;;1.73;0.90;;;;;;;;;;5065443;28;20044;-83
2021/06/07 08:33:45;;;;;;;0.90;0.80;;;;;;;;;;5069078;28;20043;-83
2021/06/07 08:36:12;;;;;;;4.15;1.20;;;;;;;;;;5070058;28;20036;-83
2021/06/07 08:38:41;;;;;;;1.20;0.90;;;;;;;;;;5064924;28;20048;-83
2021/06/07 08:41:08;;;;;;;0.90;0.90;;;;;;;;;;5070171;28;20110;-83
2021/06/07 08:43:35;;;;;;;2.45;0.80;;;;;;;;;;5066850;28;20102;-83
2021/06/07 08:46:19;;;;;;;1.58;0.80;;;;;;;;;;5100048;28;20060;-83
2021/06/07 08:48:46;;;;;;;1.20;1.10;;;;;;;;;;5056170;28;20045;-83
2021/06/07 08:51:13;;;;;;;1.40;0.95;;;;;;;;;;5078915;28;20486;-83
2021/06/07 08:53:40;;;;;;;0.88;0.88;;;;;;;;;;5069000;28;20043;-83
2021/06/07 08:56:07;;;;;;;0.70;0.70;;;;;;;;;;5069888;28;20091;-83
2021/06/07 08:58:34;;;;;;;0.80;0.80;;;;;;;;;;5090009;28;20367;-83
2021/06/07 09:01:01;;;;;;;1.13;0.80;;;;;;;;;;5066707;28;20048;-83
2021/06/07 09:03:29;;;;;;;1.80;0.80;;;;;;;;;;5067755;28;20127;-83
2021/06/07 09:05:58;;;;;;;0.80;0.80;;;;;;;;;;5068151;28;20467;-83
2021/06/07 09:08:28;;;;;;;1.77;0.95;;;;;;;;;;5049973;28;20474;-83
2021/06/07 09:10:55;;;;;;;0.80;0.80;;;;;;;;;;5066792;28;20041;-83
2021/06/07 09:13:22;;;;;;;2.67;0.80;;;;;;;;;;5069517;28;20540;-83
2021/06/07 09:15:50;;;;;;;0.88;0.80;;;;;;;;;;5068813;28;20040;-83
2021/06/07 09:18:29;;;;;;;0.70;0.70;;;;;;;;;;5067844;28;20045;-83
2021/06/07 09:21:01;;;;;;;1.60;0.70;;;;;;;;;;5065603;28;20048;-83
2021/06/07 09:23:47;;;;;;;2.85;0.70;;;;;;;;;;5068417;28;20051;-83
2021/06/07 09:26:25;;;;;;;1.02;0.93;;;;;;;;;;5090933;28;20082;-83
2021/06/07 09:28:56;;;;;;;3.45;1.10;;;;;;;;;;5063520;28;20044;-83
2021/06/07 09:31:30;;;;;;;0.70;0.70;;;;;;;;;;5066629;28;20540;-83
2021/06/07 09:34:01;;;;;;;1.17;0.77;;;;;;;;;;5066230;28;20037;-83
2021/06/07 09:36:38;;;;;;;1.27;0.82;;;;;;;;;;5069530;28;20119;-84
2021/06/07 09:39:07;;;;;;;1.08;1.00;;;;;;;;;;5068576;28;20040;-84
2021/06/07 09:41:40;;;;;;;2.88;0.80;;;;;;;;;;5073584;28;20032;-84
2021/06/07 09:44:07;;;;;;;3.20;0.88;;;;;;;;;;5072757;28;20040;-83
2021/06/07 09:46:34;;;;;;;2.88;0.80;;;;;;;;;;5039332;28;20087;-83
2021/06/07 09:49:08;;;;;;;0.70;0.70;;;;;;;;;;5067919;28;20876;-83
2021/06/07 09:51:36;;;;;;;0.80;0.80;;;;;;;;;;5092582;28;20513;-83
2021/06/07 09:54:02;;;;;;;2.25;0.60;;;;;;;;;;5072277;28;20063;-83
2021/06/07 09:56:29;;;;;;;0.70;0.70;;;;;;;;;;5069763;28;20036;-83
2021/06/07 09:58:56;;;;;;;2.75;0.80;;;;;;;;;;5060399;28;20037;-83
2021/06/07 10:01:28;;;;;;;2.50;0.90;;;;;;;;;;5068257;28;20040;-83
2021/06/07 10:04:00;;;;;;;0.60;0.60;;;;;;;;;;5069065;28;20072;-83
2021/06/07 10:06:34;;;;;;;0.70;0.70;;;;;;;;;;5078046;28;20040;-83
2021/06/07 10:09:03;;;;;;;3.70;1.58;;;;;;;;;;5063792;28;20037;-83
2021/06/07 10:11:45;;;;;;;2.05;0.60;;;;;;;;;;5095635;28;20044;-83
2021/06/07 10:14:20;;;;;;;0.60;0.60;;;;;;;;;;5069587;28;20036;-83
2021/06/07 10:16:57;;;;;;;1.30;0.60;;;;;;;;;;5068908;28;20401;-83
2021/06/07 10:19:33;;;;;;;1.05;0.63;;;;;;;;;;5070162;28;20052;-83
2021/06/07 10:22:01;;;;;;;1.48;0.70;;;;;;;;;;5071718;28;20385;-83
2021/06/07 10:24:28;;;;;;;0.70;0.70;;;;;;;;;;5070208;28;20378;-83
2021/06/07 10:26:55;;;;;;;1.40;0.77;;;;;;;;;;5076549;28;20075;-83
2021/06/07 10:29:30;;;;;;;6.97;0.65;;;;;;;;;;5049866;28;20132;-83
2021/06/07 10:32:03;;;;;;;4.10;0.90;;;;;;;;;;5057865;28;20048;-83
2021/06/07 10:34:44;;;;;;;1.63;0.70;;;;;;;;;;5072958;28;20049;-83
2021/06/07 10:37:11;;;;;;;2.53;0.63;;;;;;;;;;5049705;28;20045;-83
2021/06/07 10:39:38;;;;;;;2.08;0.70;;;;;;;;;;5070129;28;20078;-83
2021/06/07 10:42:25;;;;;;;3.97;0.70;;;;;;;;;;5063610;28;20112;-84
2021/06/07 10:44:57;;;;;;;1.90;0.63;;;;;;;;;;5069600;28;20105;-84
2021/06/07 10:47:25;;;;;;;2.65;1.13;;;;;;;;;;5066879;28;20048;-84
2021/06/07 10:50:04;;;;;;;1.13;0.70;;;;;;;;;;5068650;28;20036;-84
2021/06/07 10:52:40;;;;;;;0.70;0.70;;;;;;;;;;5066590;28;20033;-84
2021/06/07 10:55:09;;;;;;;1.05;0.70;;;;;;;;;;5061323;28;20052;-84
2021/06/07 10:57:48;;;;;;;0.80;0.70;;;;;;;;;;5067064;28;20041;-84
2021/06/07 11:00:22;;;;;;;1.00;0.65;;;;;;;;;;5057507;28;20037;-84
2021/06/07 11:02:52;;;;;;;2.78;0.70;;;;;;;;;;5062033;28;20371;-84
2021/06/07 11:05:21;;;;;;;0.88;0.88;;;;;;;;;;5064254;28;20106;-84
2021/06/07 11:08:05;;;;;;;1.45;0.60;;;;;;;;;;5070930;28;20033;-84
2021/06/07 11:10:38;;;;;;;1.45;0.70;;;;;;;;;;5068585;28;20033;-84
2021/06/07 11:13:07;;;;;;;1.50;1.00;;;;;;;;;;5071277;28;20037;-85
2021/06/07 11:15:42;;;;;;;0.70;0.60;;;;;;;;;;5054401;28;20049;-84
2021/06/07 11:18:19;;;;;;;0.85;0.70;;;;;;;;;;5070572;28;20052;-84
2021/06/07 11:20:47;;;;;;;0.75;0.75;;;;;;;;;;5065805;28;20051;-84
2021/06/07 11:23:14;;;;;;;0.93;0.93;;;;;;;;;;5061744;28;20049;-84
2021/06/07 11:25:51;;;;;;;1.40;0.70;;;;;;;;;;5070713;28;20041;-84
2021/06/07 11:28:30;;;;;;;2.47;0.70;;;;;;;;;;5055758;28;20064;-84
2021/06/07 11:30:57;;;;;;;0.60;0.60;;;;;;;;;;5081542;28;20094;-84
2021/06/07 11:33:25;;;;;;;6.88;1.00;;;;;;;;;;5063219;28;20059;-84
2021/06/07 11:35:54;;;;;;;0.85;0.85;;;;;;;;;;5070588;28;20044;-84
2021/06/07 11:38:36;;;;;;;1.60;0.90;;;;;;;;;;5067712;28;20033;-78
2021/06/07 11:41:06;;;;;;;1.95;0.82;;;;;;;;;;5052752;28;20053;-78
2021/06/07 11:44:02;;;;;;;0.80;0.80;;;;;;;;;;5058604;28;20044;-78
2021/06/07 11:46:29;;;;;;;1.27;0.95;;;;;;;;;;5036073;28;20102;-78
2021/06/07 11:49:09;;;;;;;3.08;0.70;;;;;;;;;;5039877;28;20043;-78
2021/06/07 11:51:36;;;;;;;0.70;0.70;;;;;;;;;;5069575;28;20090;-78
2021/06/07 11:54:22;;;;;;;5.68;0.80;;;;;;;;;;5067271;28;20572;-78
2021/06/07 11:56:55;;;;;;;0.85;0.82;;;;;;;;;;5066901;28;20048;-78
2021/06/07 11:59:23;;;;;;;3.03;1.00;;;;;;;;;;5102160;28;20047;-78
2021/06/07 12:01:51;;;;;;;6.28;0.90;;;;;;;;;;5065697;28;20029;-78
2021/06/07 12:04:23;;;;;;;1.35;0.85;;;;;;;;;;5100463;28;20040;-78
2021/06/07 12:06:50;;;;;;;0.85;0.85;;;;;;;;;;5067290;28;20047;-78
2021/06/07 12:09:22;;;;;;;1.95;0.80;;;;;;;;;;5063834;28;20086;-78
2021/06/07 12:11:49;;;;;;;1.15;0.80;;;;;;;;;;5068562;28;20517;-78
2021/06/07 12:14:23;;;;;;;0.70;0.70;;;;;;;;;;5067708;28;20036;-78
2021/06/07 12:17:01;;;;;;;0.80;0.80;;;;;;;;;;5069751;28;20090;-78
2021/06/07 12:19:40;;;;;;;0.90;0.90;;;;;;;;;;5067323;28;20047;-78
2021/06/07 12:22:24;;;;;;;1.05;0.80;;;;;;;;;;5066108;28;20066;-78
2021/06/07 12:24:58;;;;;;;2.58;0.85;;;;;;;;;;5076168;28;20041;-78
2021/06/07 12:30:19;;;;;;;3.53;0.90;;;;;;;;;;5064812;28;20044;-78
2021/06/07 12:32:49;;;;;;;1.25;0.75;;;;;;;;;;5069081;28;20041;-78
2021/06/07 12:35:17;;;;;;;3.00;0.80;;;;;;;;;;5067734;28;20048;-78
2021/06/07 12:37:46;;;;;;;3.53;0.77;;;;;;;;;;5100739;28;20063;-78
2021/06/07 12:40:16;;;;;;;0.85;0.80;;;;;;;;;;5098429;28;20060;-78
2021/06/07 12:42:45;;;;;;;1.10;0.75;;;;;;;;;;5097506;28;20047;-78
2021/06/07 12:45:16;;;;;;;1.67;0.73;;;;;;;;;;5100861;28;20097;-78
2021/06/07 12:47:43;;;;;;;2.20;0.80;;;;;;;;;;5061474;28;20106;-78
2021/06/07 12:50:11;;;;;;;2.95;0.80;;;;;;;;;;5075184;28;20039;-78
2021/06/07 12:52:39;;;;;;;1.85;0.85;;;;;;;;;;5071810;28;20052;-78
2021/06/07 12:55:07;;;;;;;2.05;0.80;;;;;;;;;;5082142;28;20051;-78
2021/06/07 12:57:34;;;;;;;1.20;1.08;;;;;;;;;;5076366;28;20048;-78
2021/06/07 13:00:19;;;;;;;2.20;0.70;;;;;;;;;;5097219;28;20093;-78
2021/06/07 13:02:48;;;;;;;1.05;0.80;;;;;;;;;;5080317;28;20056;-78
2021/06/07 13:05:27;;;;;;;0.70;0.70;;;;;;;;;;5103709;28;20048;-78
2021/06/07 13:08:13;;;;;;;0.70;0.70;;;;;;;;;;5074961;28;20063;-78
2021/06/07 13:10:44;;;;;;;5.20;0.80;;;;;;;;;;5062516;28;20533;-78
2021/06/07 13:13:18;;;;;;;0.80;0.80;;;;;;;;;;5094441;28;20100;-78
2021/06/07 13:15:55;;;;;;;0.88;0.80;;;;;;;;;;5039230;28;20089;-78
2021/06/07 13:18:22;;;;;;;3.40;0.90;;;;;;;;;;5038403;28;20087;-78
2021/06/07 13:21:08;;;;;;;1.20;0.80;;;;;;;;;;5062845;28;20087;-78
2021/06/07 13:23:39;;;;;;;1.70;0.80;;;;;;;;;;5046345;28;20128;-80
2021/06/07 13:26:19;;;;;;;1.67;0.90;;;;;;;;;;5045154;28;20052;-78
2021/06/07 13:28:47;;;;;;;0.80;0.80;;;;;;;;;;5046006;28;20045;-78
2021/06/07 13:31:14;;;;;;;0.70;0.70;;;;;;;;;;5041567;28;20041;-78
2021/06/07 13:33:41;;;;;;;2.90;1.45;;;;;;;;;;5062910;28;20486;-78
2021/06/07 13:36:09;;;;;;;0.85;0.85;;;;;;;;;;5045730;28;20048;-78
2021/06/07 13:38:38;;;;;;;2.80;0.70;;;;;;;;;;5045554;28;20098;-78
2021/06/07 13:41:12;;;;;;;0.65;0.65;;;;;;;;;;5039503;28;20049;-78
2021/06/07 13:43:41;;;;;;;1.42;0.80;;;;;;;;;;5045593;28;20371;-78
2021/06/07 13:46:22;;;;;;;1.40;0.70;;;;;;;;;;5061166;28;20572;-78
2021/06/07 13:48:49;;;;;;;1.95;0.70;;;;;;;;;;5062603;28;20037;-78
2021/06/07 13:51:34;;;;;;;0.70;0.60;;;;;;;;;;5041938;28;20041;-78
2021/06/07 13:54:08;;;;;;;2.15;0.70;;;;;;;;;;5050841;28;20459;-78
2021/06/07 13:56:36;;;;;;;0.93;0.60;;;;;;;;;;5067338;28;20044;-78
2021/06/07 13:59:04;;;;;;;1.63;0.70;;;;;;;;;;5067388;28;20048;-78
2021/06/07 14:01:34;;;;;;;0.70;0.70;;;;;;;;;;5066182;28;20041;-78
2021/06/07 14:04:05;;;;;;;1.10;0.70;;;;;;;;;;5059325;28;20124;-78
2021/06/07 14:06:36;;;;;;;2.78;0.70;;;;;;;;;;5058024;28;20049;-78
2021/06/07 14:09:16;;;;;;;0.60;0.60;;;;;;;;;;5051080;28;20364;-78
2021/06/07 14:11:44;;;;;;;2.45;0.70;;;;;;;;;;5078945;28;20029;-78
2021/06/07 14:14:13;;;;;;;11.00;0.80;;;;;;;;;;5061562;28;20044;-78
2021/06/07 14:16:40;;;;;;;4.93;0.80;;;;;;;;;;5073848;28;20103;-78
2021/06/07 14:19:09;;;;;;;7.05;0.70;;;;;;;;;;5064059;28;20072;-81
2021/06/07 14:24:37;;;;;;;0.85;0.70;;;;;;;;;;5053134;28;20044;-81
2021/06/07 14:24:38;;;;;;;0.93;0.70;;;;;;;;;;5068693;28;20235;-81
2021/06/07 14:27:06;;;;;;;1.92;0.60;;;;;;;;;;5071316;28;20444;-81
2021/06/07 14:29:36;;;;;;;1.83;0.60;;;;;;;;;;5072203;28;20048;-81
2021/06/07 14:32:04;;;;;;;1.13;0.60;;;;;;;;;;5053454;28;20045;-81
2021/06/07 14:34:34;;;;;;;1.60;0.60;;;;;;;;;;5043901;28;20048;-81
2021/06/07 14:37:02;;;;;;;0.70;0.70;;;;;;;;;;5054303;28;20052;-81
2021/06/07 14:39:29;;;;;;;0.65;0.65;;;;;;;;;;5048731;28;20097;-81
2021/06/07 14:41:56;;;;;;;2.15;0.60;;;;;;;;;;5066816;28;20111;-81
2021/06/07 14:44:23;;;;;;;1.15;0.60;;;;;;;;;;5070825;28;20052;-81
2021/06/07 14:46:52;;;;;;;0.60;0.60;;;;;;;;;;5053717;28;20048;-81
2021/06/07 14:49:20;;;;;;;0.50;0.50;;;;;;;;;;5054575;28;20093;-81
2021/06/07 14:51:47;;;;;;;1.83;0.60;;;;;;;;;;5051720;28;20044;-81
2021/06/07 14:54:15;;;;;;;1.75;0.50;;;;;;;;;;5067844;28;20175;-81
2021/06/07 14:56:42;;;;;;;0.57;0.57;;;;;;;;;;5058659;28;20049;-81
2021/06/07 14:59:10;;;;;;;3.72;0.70;;;;;;;;;;5050854;28;20044;-81